Time;durP1;ratioP1;P1;durP2;ratioP2;P2;SDS_P1;SDS_P2;PMS_P1;PMS_P2;Temp;Humidity;BMP_temperature;BMP_pressure;BME280_temperature;BME280_humidity;BME280_pressure;Samples;Min_cycle;Max_cycle;Signal;HPM_P1;HPM_P2
2022/09/12 00:02:23;;;;;;;8.60;1.83;;;;;;;;;;4993026;28;20031;-62
2022/09/12 00:04:49;;;;;;;6.20;1.70;;;;;;;;;;4993102;28;20022;-66
2022/09/12 00:07:15;;;;;;;3.35;1.60;;;;;;;;;;4992475;28;20113;-62
2022/09/12 00:09:41;;;;;;;4.68;1.98;;;;;;;;;;4975002;28;20070;-61
2022/09/12 00:12:07;;;;;;;4.70;1.80;;;;;;;;;;4972194;28;20035;-69
2022/09/12 00:14:33;;;;;;;3.03;1.83;;;;;;;;;;4971582;28;20051;-62
2022/09/12 00:17:00;;;;;;;6.47;1.95;;;;;;;;;;4971973;28;20398;-60
2022/09/12 00:19:27;;;;;;;7.15;1.85;;;;;;;;;;4972643;28;20177;-64
2022/09/12 00:21:53;;;;;;;4.55;1.90;;;;;;;;;;4972018;28;20041;-63
2022/09/12 00:24:19;;;;;;;5.15;1.73;;;;;;;;;;4971761;28;20417;-61
2022/09/12 00:26:45;;;;;;;3.55;1.90;;;;;;;;;;4971765;28;20042;-62
2022/09/12 00:29:16;;;;;;;6.28;2.10;;;;;;;;;;4971647;28;20548;-61
2022/09/12 00:31:43;;;;;;;4.93;2.08;;;;;;;;;;4972073;28;20394;-63
2022/09/12 00:34:09;;;;;;;8.23;2.20;;;;;;;;;;4971785;28;20031;-63
2022/09/12 00:36:35;;;;;;;2.65;1.80;;;;;;;;;;4971766;28;20035;-61
2022/09/12 00:39:02;;;;;;;5.38;2.20;;;;;;;;;;4971953;28;20051;-65
2022/09/12 00:41:38;;;;;;;5.22;2.60;;;;;;;;;;4971834;28;20130;-61
2022/09/12 00:44:22;;;;;;;4.63;2.47;;;;;;;;;;4971734;28;20053;-61
2022/09/12 00:46:56;;;;;;;5.15;2.10;;;;;;;;;;4972479;28;20034;-61
2022/09/12 00:49:31;;;;;;;4.47;2.70;;;;;;;;;;4954362;28;20026;-63
2022/09/12 00:52:12;;;;;;;4.20;2.70;;;;;;;;;;4971363;28;20054;-67
2022/09/12 00:54:51;;;;;;;3.38;2.38;;;;;;;;;;4971240;28;20112;-62
2022/09/12 00:57:20;;;;;;;4.78;2.28;;;;;;;;;;4971245;28;20114;-61
2022/09/12 01:00:08;;;;;;;3.10;2.13;;;;;;;;;;4954292;28;20030;-62
2022/09/12 01:02:35;;;;;;;3.90;2.38;;;;;;;;;;4971537;28;20058;-62
2022/09/12 01:05:00;;;;;;;3.25;2.00;;;;;;;;;;4971505;28;20419;-63
2022/09/12 01:07:27;;;;;;;4.78;2.08;;;;;;;;;;4971680;28;20051;-61
2022/09/12 01:09:54;;;;;;;6.05;2.20;;;;;;;;;;4971525;28;20027;-62
2022/09/12 01:12:20;;;;;;;4.30;2.10;;;;;;;;;;4972814;28;20030;-63
2022/09/12 01:14:45;;;;;;;4.47;2.00;;;;;;;;;;4975254;28;20047;-62
2022/09/12 01:17:13;;;;;;;2.88;2.05;;;;;;;;;;4974908;28;20038;-61
2022/09/12 01:19:59;;;;;;;3.25;2.10;;;;;;;;;;4975203;28;20074;-60
2022/09/12 01:22:39;;;;;;;5.20;1.90;;;;;;;;;;4975261;28;20031;-65
2022/09/12 01:25:30;;;;;;;4.57;2.17;;;;;;;;;;4977072;28;20041;-60
2022/09/12 01:28:31;;;;;;;3.70;2.00;;;;;;;;;;4980468;28;20037;-60
2022/09/12 01:31:27;;;;;;;5.22;2.40;;;;;;;;;;4974844;28;20039;-63
2022/09/12 01:34:08;;;;;;;2.67;1.98;;;;;;;;;;4974783;28;20504;-63
2022/09/12 01:37:12;;;;;;;2.95;1.88;;;;;;;;;;4974712;28;20042;-62
2022/09/12 01:39:41;;;;;;;2.78;1.95;;;;;;;;;;4974685;28;20519;-63
2022/09/12 01:42:14;;;;;;;5.30;2.20;;;;;;;;;;4975096;28;20031;-63
2022/09/12 01:45:01;;;;;;;7.25;2.10;;;;;;;;;;4975053;28;20043;-63
2022/09/12 01:47:27;;;;;;;3.40;2.28;;;;;;;;;;4974473;28;20525;-61
2022/09/12 01:50:08;;;;;;;3.80;1.80;;;;;;;;;;4974840;28;20109;-61
2022/09/12 01:52:40;;;;;;;4.28;2.28;;;;;;;;;;4957743;28;20433;-63
2022/09/12 01:55:12;;;;;;;5.15;2.00;;;;;;;;;;4974746;28;20041;-63
2022/09/12 01:57:48;;;;;;;13.48;2.65;;;;;;;;;;4974862;28;20525;-61
2022/09/12 02:00:14;;;;;;;5.07;2.22;;;;;;;;;;4974773;28;20034;-63
2022/09/12 02:02:50;;;;;;;3.40;2.08;;;;;;;;;;4974763;28;20026;-63
2022/09/12 02:05:28;;;;;;;3.17;2.30;;;;;;;;;;4973982;28;20031;-61
2022/09/12 02:08:01;;;;;;;4.72;2.33;;;;;;;;;;4956856;28;20026;-62
2022/09/12 02:10:30;;;;;;;;;;;;;;;;;;4974528;28;20034;-62
2022/09/12 02:13:21;;;;;;;3.67;2.45;;;;;;;;;;4973781;28;19918;-63
2022/09/12 02:15:53;;;;;;;4.30;2.58;;;;;;;;;;4973770;28;20453;-62
2022/09/12 02:18:20;;;;;;;4.43;2.40;;;;;;;;;;4974110;28;20070;-62
2022/09/12 02:20:47;;;;;;;4.97;2.50;;;;;;;;;;4974072;28;20300;-62
2022/09/12 02:23:21;;;;;;;8.52;4.07;;;;;;;;;;4973056;28;20478;-62
2022/09/12 02:25:51;;;;;;;7.53;2.95;;;;;;;;;;4973448;28;20418;-62
2022/09/12 02:28:40;;;;;;;5.63;3.15;;;;;;;;;;4973837;28;20026;-61
2022/09/12 02:31:21;;;;;;;3.20;2.20;;;;;;;;;;4973764;28;20039;-61
2022/09/12 02:33:52;;;;;;;4.35;2.78;;;;;;;;;;4973366;28;20097;-62
2022/09/12 02:36:50;;;;;;;7.32;2.78;;;;;;;;;;4973674;28;20465;-62
2022/09/12 02:39:20;;;;;;;4.38;2.42;;;;;;;;;;4973554;28;20031;-62
2022/09/12 02:41:50;;;;;;;5.13;2.40;;;;;;;;;;4952762;29;20031;-63
2022/09/12 02:44:15;;;;;;;5.20;2.60;;;;;;;;;;4971000;28;20118;-62
2022/09/12 02:46:49;;;;;;;3.88;2.63;;;;;;;;;;4973856;28;20561;-62
2022/09/12 02:49:15;;;;;;;6.15;2.72;;;;;;;;;;4974147;28;20034;-62
2022/09/12 02:51:42;;;;;;;7.85;2.60;;;;;;;;;;4973795;28;20093;-62
2022/09/12 02:54:08;;;;;;;5.68;2.40;;;;;;;;;;4973598;28;20439;-62
2022/09/12 02:56:35;;;;;;;4.25;2.42;;;;;;;;;;4973412;28;20023;-63
2022/09/12 02:59:05;;;;;;;4.95;2.50;;;;;;;;;;4973130;28;20593;-62
2022/09/12 03:01:48;;;;;;;4.07;2.17;;;;;;;;;;4973389;28;20074;-62
2022/09/12 03:04:46;;;;;;;4.35;2.45;;;;;;;;;;4973286;28;20134;-61
2022/09/12 03:07:41;;;;;;;6.55;2.83;;;;;;;;;;4971397;28;20047;-62
2022/09/12 03:10:22;;;;;;;3.05;2.33;;;;;;;;;;4972741;28;20031;-61
2022/09/12 03:12:50;;;;;;;5.53;2.80;;;;;;;;;;4972979;28;20538;-61
2022/09/12 03:15:31;;;;;;;5.88;3.17;;;;;;;;;;4973229;28;20346;-62
2022/09/12 03:18:34;;;;;;;9.07;3.60;;;;;;;;;;4976097;28;20126;-62
2022/09/12 03:21:03;;;;;;;8.10;3.03;;;;;;;;;;4980309;28;20062;-62
2022/09/12 03:23:48;;;;;;;8.23;3.42;;;;;;;;;;4982061;28;20026;-62
2022/09/12 03:26:53;;;;;;;14.38;3.42;;;;;;;;;;4972736;28;20367;-62
2022/09/12 03:29:19;;;;;;;9.68;3.80;;;;;;;;;;4972915;28;20035;-61
2022/09/12 03:31:50;;;;;;;8.18;2.90;;;;;;;;;;4973197;28;20026;-61
2022/09/12 03:34:16;;;;;;;5.85;3.58;;;;;;;;;;4971839;28;20492;-61
2022/09/12 03:36:42;;;;;;;4.95;3.13;;;;;;;;;;4972413;28;20019;-62
2022/09/12 03:39:08;;;;;;;7.70;4.10;;;;;;;;;;4971575;28;20704;-62
2022/09/12 03:41:34;;;;;;;17.45;4.75;;;;;;;;;;4978480;28;20327;-61
2022/09/12 03:43:59;;;;;;;6.40;4.07;;;;;;;;;;4980475;28;20035;-61
2022/09/12 03:46:25;;;;;;;9.65;3.95;;;;;;;;;;4962637;28;20101;-63
2022/09/12 03:48:51;;;;;;;11.57;4.43;;;;;;;;;;4977888;28;20066;-62
2022/09/12 03:51:17;;;;;;;7.63;3.50;;;;;;;;;;4972604;28;20082;-61
2022/09/12 03:53:43;;;;;;;14.40;3.75;;;;;;;;;;4972182;28;20037;-62
2022/09/12 03:56:10;;;;;;;7.30;3.55;;;;;;;;;;4975282;28;20474;-62
2022/09/12 03:58:36;;;;;;;8.65;4.22;;;;;;;;;;4973024;28;20047;-61
2022/09/12 04:01:14;;;;;;;10.48;3.85;;;;;;;;;;4971795;28;20378;-61
2022/09/12 04:03:41;;;;;;;7.15;3.90;;;;;;;;;;4973529;28;20041;-62
2022/09/12 04:06:08;;;;;;;8.35;4.25;;;;;;;;;;4979288;28;20027;-61
2022/09/12 04:08:35;;;;;;;8.65;3.72;;;;;;;;;;4978019;28;20038;-62
2022/09/12 04:11:12;;;;;;;4.97;3.20;;;;;;;;;;4980354;28;20035;-62
2022/09/12 04:13:39;;;;;;;6.47;3.63;;;;;;;;;;4982428;28;20118;-62
2022/09/12 04:16:06;;;;;;;9.35;3.45;;;;;;;;;;4979614;28;20061;-61
2022/09/12 04:18:33;;;;;;;8.27;3.75;;;;;;;;;;4979778;28;20039;-62
2022/09/12 04:21:06;;;;;;;6.38;3.90;;;;;;;;;;4978136;28;20030;-63
2022/09/12 04:23:33;;;;;;;8.32;3.67;;;;;;;;;;4979795;28;20161;-64
2022/09/12 04:26:01;;;;;;;10.63;3.75;;;;;;;;;;4980142;28;20070;-63
2022/09/12 04:28:31;;;;;;;7.72;3.60;;;;;;;;;;4977061;28;20030;-63
2022/09/12 04:31:11;;;;;;;5.38;3.33;;;;;;;;;;4982040;28;20041;-61
2022/09/12 04:33:37;;;;;;;9.30;3.80;;;;;;;;;;4981510;28;20189;-62
2022/09/12 04:36:13;;;;;;;6.55;3.28;;;;;;;;;;4982457;28;20097;-62
2022/09/12 04:38:39;;;;;;;9.43;3.85;;;;;;;;;;4982010;28;20030;-62
2022/09/12 04:41:17;;;;;;;7.95;3.55;;;;;;;;;;4983776;28;20023;-62
2022/09/12 04:43:46;;;;;;;9.73;3.17;;;;;;;;;;4980443;28;20671;-62
2022/09/12 04:46:15;;;;;;;13.23;2.85;;;;;;;;;;4978408;28;20058;-63
2022/09/12 04:48:42;;;;;;;9.50;3.45;;;;;;;;;;4972650;28;20030;-62
2022/09/12 04:51:28;;;;;;;6.53;3.40;;;;;;;;;;4973713;28;20082;-62
2022/09/12 04:53:56;;;;;;;11.90;3.90;;;;;;;;;;4973596;28;20078;-62
2022/09/12 04:56:23;;;;;;;6.65;3.67;;;;;;;;;;4974119;28;20056;-62
2022/09/12 04:58:49;;;;;;;19.77;3.72;;;;;;;;;;4973909;28;20386;-63
2022/09/12 05:01:17;;;;;;;9.82;3.47;;;;;;;;;;4973928;28;20025;-64
2022/09/12 05:03:45;;;;;;;16.63;4.13;;;;;;;;;;4973764;28;20066;-62
2022/09/12 05:06:16;;;;;;;11.80;3.90;;;;;;;;;;4956215;28;20046;-62
2022/09/12 05:08:42;;;;;;;7.63;3.10;;;;;;;;;;4973559;28;20038;-62
2022/09/12 05:11:13;;;;;;;13.65;2.70;;;;;;;;;;4973584;28;20027;-62
2022/09/12 05:13:39;;;;;;;7.82;3.20;;;;;;;;;;4973379;28;20059;-62
2022/09/12 05:16:06;;;;;;;8.65;3.28;;;;;;;;;;4973396;28;20042;-62
2022/09/12 05:18:34;;;;;;;6.80;2.50;;;;;;;;;;4973483;28;20058;-62
2022/09/12 05:21:01;;;;;;;10.07;3.28;;;;;;;;;;4973427;28;20035;-62
2022/09/12 05:23:27;;;;;;;5.85;2.67;;;;;;;;;;4973866;28;20443;-62
2022/09/12 05:25:56;;;;;;;4.15;2.75;;;;;;;;;;4955805;28;20085;-62
2022/09/12 05:28:23;;;;;;;5.78;2.63;;;;;;;;;;4974277;28;20027;-62
2022/09/12 05:31:10;;;;;;;13.05;3.88;;;;;;;;;;4973376;28;20474;-62
2022/09/12 05:33:37;;;;;;;13.32;3.45;;;;;;;;;;4973037;28;20050;-64
2022/09/12 05:36:06;;;;;;;7.53;2.97;;;;;;;;;;4973419;28;20378;-62
2022/09/12 05:38:36;;;;;;;6.22;3.10;;;;;;;;;;4973943;28;20034;-62
2022/09/12 05:41:08;;;;;;;10.77;3.55;;;;;;;;;;4973113;28;20363;-62
2022/09/12 05:43:36;;;;;;;9.93;3.53;;;;;;;;;;4973302;28;20526;-62
2022/09/12 05:46:08;;;;;;;7.03;3.28;;;;;;;;;;4973471;28;20475;-63
2022/09/12 05:48:35;;;;;;;6.78;2.83;;;;;;;;;;4973109;28;20035;-63
2022/09/12 05:51:22;;;;;;;7.63;2.78;;;;;;;;;;4971680;28;20035;-62
2022/09/12 05:53:58;;;;;;;12.50;3.03;;;;;;;;;;4972602;28;20041;-62
2022/09/12 05:56:27;;;;;;;12.02;3.30;;;;;;;;;;4973255;28;20065;-62
2022/09/12 05:58:56;;;;;;;4.85;2.80;;;;;;;;;;4975252;28;20031;-64
2022/09/12 06:01:23;;;;;;;6.18;2.50;;;;;;;;;;4977056;28;20034;-63
2022/09/12 06:03:53;;;;;;;3.33;2.35;;;;;;;;;;4976743;28;20026;-62
2022/09/12 06:06:22;;;;;;;6.55;2.45;;;;;;;;;;4976767;28;20031;-62
2022/09/12 06:08:50;;;;;;;6.95;2.20;;;;;;;;;;4976633;28;20038;-62
2022/09/12 06:11:19;;;;;;;4.15;2.20;;;;;;;;;;4976508;28;20034;-62
2022/09/12 06:13:46;;;;;;;7.22;2.20;;;;;;;;;;4975030;28;20027;-63
2022/09/12 06:16:15;;;;;;;6.28;2.33;;;;;;;;;;4976328;28;20083;-62
2022/09/12 06:18:45;;;;;;;3.30;2.15;;;;;;;;;;4976598;28;20097;-62
2022/09/12 06:21:12;;;;;;;4.32;2.38;;;;;;;;;;4959186;28;20035;-63
2022/09/12 06:23:39;;;;;;;3.78;2.28;;;;;;;;;;4986084;28;20507;-63
2022/09/12 06:26:07;;;;;;;3.50;2.15;;;;;;;;;;4995713;28;20039;-63
2022/09/12 06:28:37;;;;;;;10.65;2.60;;;;;;;;;;4995569;28;20023;-63
2022/09/12 06:31:12;;;;;;;4.40;2.60;;;;;;;;;;4986950;28;20031;-63
2022/09/12 06:33:40;;;;;;;4.53;2.10;;;;;;;;;;4975877;28;20049;-62
2022/09/12 06:36:08;;;;;;;5.47;2.20;;;;;;;;;;4966276;28;20026;-63
2022/09/12 06:38:34;;;;;;;5.32;2.10;;;;;;;;;;4982118;28;20026;-62
2022/09/12 06:41:04;;;;;;;6.88;2.08;;;;;;;;;;4971072;28;20498;-63
2022/09/12 06:43:30;;;;;;;3.67;2.00;;;;;;;;;;4994825;28;20078;-64
2022/09/12 06:45:56;;;;;;;3.65;1.98;;;;;;;;;;4994803;28;20054;-61
2022/09/12 06:48:22;;;;;;;7.97;2.33;;;;;;;;;;4994967;28;20030;-63
2022/09/12 06:50:58;;;;;;;4.28;2.40;;;;;;;;;;4994959;28;20030;-63
2022/09/12 06:53:25;;;;;;;3.35;1.92;;;;;;;;;;4995071;28;20065;-62
2022/09/12 06:56:21;;;;;;;2.97;2.00;;;;;;;;;;4995223;28;20033;-62
2022/09/12 06:58:48;;;;;;;4.50;2.10;;;;;;;;;;4994390;28;20061;-61
2022/09/12 07:01:16;;;;;;;4.25;2.20;;;;;;;;;;4984469;28;20034;-63
2022/09/12 07:03:47;;;;;;;7.72;3.45;;;;;;;;;;4974584;28;20517;-64
2022/09/12 07:06:15;;;;;;;2.67;2.08;;;;;;;;;;4957624;28;20062;-62
2022/09/12 07:08:41;;;;;;;3.45;2.30;;;;;;;;;;4975139;28;20031;-62
2022/09/12 07:11:14;;;;;;;3.33;2.42;;;;;;;;;;4960104;28;20101;-61
2022/09/12 07:13:42;;;;;;;4.00;2.50;;;;;;;;;;4970476;28;20038;-62
2022/09/12 07:16:09;;;;;;;5.35;2.30;;;;;;;;;;4994144;28;20485;-62
2022/09/12 07:18:39;;;;;;;3.88;2.53;;;;;;;;;;4994258;28;20042;-62
2022/09/12 07:21:13;;;;;;;3.38;2.40;;;;;;;;;;4986414;28;20034;-62
2022/09/12 07:23:40;;;;;;;5.20;2.28;;;;;;;;;;4983202;28;20545;-63
2022/09/12 07:26:09;;;;;;;4.55;2.35;;;;;;;;;;4974068;28;20022;-62
2022/09/12 07:28:35;;;;;;;8.13;2.92;;;;;;;;;;4974300;28;20034;-66
2022/09/12 07:31:06;;;;;;;5.95;2.80;;;;;;;;;;4974635;28;20026;-61
2022/09/12 07:33:33;;;;;;;4.55;2.22;;;;;;;;;;4974645;28;20045;-61
2022/09/12 07:36:07;;;;;;;6.10;2.38;;;;;;;;;;4974010;28;20390;-61
2022/09/12 07:38:34;;;;;;;6.07;2.80;;;;;;;;;;4974116;28;20034;-63
2022/09/12 07:41:00;;;;;;;3.60;2.30;;;;;;;;;;4977790;28;20031;-62
2022/09/12 07:43:26;;;;;;;5.53;3.13;;;;;;;;;;4970060;28;20069;-62
2022/09/12 07:45:56;;;;;;;5.85;3.13;;;;;;;;;;4966286;28;20435;-62
2022/09/12 07:48:22;;;;;;;6.85;2.10;;;;;;;;;;4983396;28;20059;-63
2022/09/12 07:50:59;;;;;;;3.53;2.38;;;;;;;;;;4982661;28;20532;-61
2022/09/12 07:53:29;;;;;;;5.65;3.03;;;;;;;;;;4983433;28;20415;-62
2022/09/12 07:55:55;;;;;;;6.38;3.17;;;;;;;;;;4986393;28;20485;-62
2022/09/12 07:58:23;;;;;;;4.18;2.38;;;;;;;;;;4990535;28;20077;-62
2022/09/12 08:00:49;;;;;;;3.72;2.17;;;;;;;;;;4981858;28;20049;-62
2022/09/12 08:03:15;;;;;;;7.32;3.10;;;;;;;;;;4964176;28;20030;-62
2022/09/12 08:05:41;;;;;;;9.05;3.05;;;;;;;;;;4982466;28;20029;-62
2022/09/12 08:08:07;;;;;;;5.95;3.08;;;;;;;;;;4982297;28;20394;-65
2022/09/12 08:10:33;;;;;;;4.80;2.40;;;;;;;;;;4981021;28;20453;-62
2022/09/12 08:12:59;;;;;;;6.20;2.10;;;;;;;;;;4976850;28;20109;-62
2022/09/12 08:15:25;;;;;;;4.03;2.25;;;;;;;;;;4987297;28;20042;-64
2022/09/12 08:17:50;;;;;;;2.70;2.03;;;;;;;;;;4973737;28;20387;-63
2022/09/12 08:20:16;;;;;;;2.75;2.00;;;;;;;;;;4973464;28;20035;-61
2022/09/12 08:22:43;;;;;;;3.03;1.90;;;;;;;;;;4973545;28;20550;-62
2022/09/12 08:25:09;;;;;;;3.03;1.92;;;;;;;;;;4973825;28;20058;-61
2022/09/12 08:27:35;;;;;;;3.05;2.38;;;;;;;;;;4973857;28;20045;-61
2022/09/12 08:30:01;;;;;;;5.57;2.50;;;;;;;;;;4983850;28;20151;-61
2022/09/12 08:32:27;;;;;;;2.55;1.95;;;;;;;;;;4992606;28;20498;-61
2022/09/12 08:34:53;;;;;;;2.75;2.00;;;;;;;;;;4992850;28;20069;-61
2022/09/12 08:37:18;;;;;;;4.43;2.17;;;;;;;;;;4992285;28;20054;-62
2022/09/12 08:39:44;;;;;;;3.60;1.80;;;;;;;;;;4992888;28;20049;-62
2022/09/12 08:42:23;;;;;;;5.40;2.20;;;;;;;;;;4975099;28;20109;-62
2022/09/12 08:45:10;;;;;;;5.03;2.22;;;;;;;;;;4992866;28;20449;-62
2022/09/12 08:47:40;;;;;;;4.53;2.20;;;;;;;;;;4975469;28;20062;-65
2022/09/12 08:50:16;;;;;;;1.80;1.50;;;;;;;;;;4975410;28;20036;-63
2022/09/12 08:53:11;;;;;;;3.63;2.00;;;;;;;;;;4981438;28;20049;-62
2022/09/12 08:55:39;;;;;;;3.78;2.63;;;;;;;;;;4980315;28;20054;-62
2022/09/12 08:58:11;;;;;;;3.40;2.60;;;;;;;;;;4992371;28;20109;-61
2022/09/12 09:01:06;;;;;;;5.78;3.17;;;;;;;;;;4992655;28;20121;-62
2022/09/12 09:03:50;;;;;;;5.35;2.15;;;;;;;;;;4979825;28;20030;-61
2022/09/12 09:06:55;;;;;;;6.13;2.30;;;;;;;;;;4973806;28;20176;-62
2022/09/12 09:09:43;;;;;;;4.43;2.58;;;;;;;;;;4991625;28;20124;-62
2022/09/12 09:12:28;;;;;;;6.15;2.40;;;;;;;;;;4992538;28;20030;-63
2022/09/12 09:14:59;;;;;;;5.90;2.33;;;;;;;;;;4992639;28;20058;-62
2022/09/12 09:17:34;;;;;;;5.05;2.42;;;;;;;;;;4993068;28;20040;-62
2022/09/12 09:20:28;;;;;;;3.55;2.30;;;;;;;;;;4989416;28;20035;-60
2022/09/12 09:23:03;;;;;;;;;;;;;;;;;;4973642;28;20318;-62
2022/09/12 09:25:42;;;;;;;10.82;2.30;;;;;;;;;;4955862;28;20017;-62
2022/09/12 09:28:22;;;;;;;6.28;2.67;;;;;;;;;;4972853;28;20035;-62
2022/09/12 09:30:49;;;;;;;4.10;2.20;;;;;;;;;;4972890;28;20075;-63
2022/09/12 09:33:25;;;;;;;4.20;2.60;;;;;;;;;;4951786;28;20074;-64
2022/09/12 09:36:13;;;;;;;6.38;2.30;;;;;;;;;;4957897;28;20122;-63
2022/09/12 09:38:39;;;;;;;4.45;2.67;;;;;;;;;;4957210;28;20078;-63
2022/09/12 09:41:14;;;;;;;5.10;2.50;;;;;;;;;;4957225;28;20451;-63
2022/09/12 09:43:39;;;;;;;3.83;2.28;;;;;;;;;;4957084;28;20039;-62
2022/09/12 09:46:06;;;;;;;5.88;2.40;;;;;;;;;;4960947;28;20027;-62
2022/09/12 09:48:35;;;;;;;5.95;2.60;;;;;;;;;;4957487;29;20042;-62
2022/09/12 09:51:05;;;;;;;8.45;2.60;;;;;;;;;;4956804;28;20051;-62
2022/09/12 09:53:37;;;;;;;4.18;2.28;;;;;;;;;;4957218;28;20402;-62
2022/09/12 09:56:19;;;;;;;6.25;2.58;;;;;;;;;;4973275;28;20035;-61
2022/09/12 09:58:45;;;;;;;4.25;2.50;;;;;;;;;;4975564;28;20062;-61
2022/09/12 10:01:15;;;;;;;5.72;2.35;;;;;;;;;;4976126;28;20101;-61
2022/09/12 10:03:52;;;;;;;8.48;2.75;;;;;;;;;;4976114;28;20422;-61
2022/09/12 10:06:19;;;;;;;4.40;2.22;;;;;;;;;;4975491;28;20066;-62
2022/09/12 10:08:46;;;;;;;3.92;2.20;;;;;;;;;;4975726;28;20033;-62
2022/09/12 10:11:15;;;;;;;3.47;2.10;;;;;;;;;;4975781;28;20035;-61
2022/09/12 10:13:52;;;;;;;4.93;1.80;;;;;;;;;;4975198;28;20434;-62
2022/09/12 10:16:21;;;;;;;6.05;2.80;;;;;;;;;;4975890;28;20069;-61
2022/09/12 10:18:49;;;;;;;7.05;2.40;;;;;;;;;;4975759;28;20431;-63
2022/09/12 10:21:46;;;;;;;4.07;2.15;;;;;;;;;;4975371;28;20478;-63
2022/09/12 10:24:23;;;;;;;4.10;2.30;;;;;;;;;;4975555;28;20513;-62
2022/09/12 10:26:53;;;;;;;9.10;3.10;;;;;;;;;;4975807;28;20064;-62
2022/09/12 10:29:31;;;;;;;3.97;2.33;;;;;;;;;;4975753;28;20027;-61
2022/09/12 10:32:01;;;;;;;7.03;2.40;;;;;;;;;;4975972;28;20073;-61
2022/09/12 10:34:33;;;;;;;5.43;2.30;;;;;;;;;;4975703;28;20046;-65
2022/09/12 10:37:17;;;;;;;4.03;1.80;;;;;;;;;;4975072;28;20038;-63
2022/09/12 10:39:53;;;;;;;6.22;2.08;;;;;;;;;;4975921;28;20088;-63
2022/09/12 10:42:43;;;;;;;3.03;1.90;;;;;;;;;;4975750;28;20034;-63
2022/09/12 10:45:24;;;;;;;3.53;2.17;;;;;;;;;;4974821;28;20049;-63
2022/09/12 10:47:52;;;;;;;3.10;1.80;;;;;;;;;;4974272;28;20039;-63
2022/09/12 10:50:29;;;;;;;4.00;1.90;;;;;;;;;;4974251;28;20382;-63
2022/09/12 10:53:22;;;;;;;6.05;2.50;;;;;;;;;;4975765;28;20059;-67
2022/09/12 10:56:13;;;;;;;3.88;1.70;;;;;;;;;;4958532;28;20042;-62
2022/09/12 10:58:56;;;;;;;5.10;1.80;;;;;;;;;;4975956;28;20031;-62
2022/09/12 11:01:35;;;;;;;5.18;1.70;;;;;;;;;;4975649;28;20386;-64
2022/09/12 11:04:18;;;;;;;1.90;1.35;;;;;;;;;;4975811;28;20486;-62
2022/09/12 11:06:56;;;;;;;3.65;1.50;;;;;;;;;;4975269;28;20070;-62
2022/09/12 11:09:43;;;;;;;3.38;1.77;;;;;;;;;;4975554;28;20126;-63
2022/09/12 11:12:23;;;;;;;3.15;1.75;;;;;;;;;;4975820;28;20082;-66
2022/09/12 11:15:12;;;;;;;4.18;1.60;;;;;;;;;;4975234;28;20138;-66
2022/09/12 11:17:59;;;;;;;3.55;2.35;;;;;;;;;;4975340;28;20047;-66
2022/09/12 11:20:44;;;;;;;3.05;1.60;;;;;;;;;;4975675;28;20031;-66
2022/09/12 11:23:25;;;;;;;3.50;1.60;;;;;;;;;;4975304;28;20031;-66
2022/09/12 11:26:12;;;;;;;9.75;2.28;;;;;;;;;;4975182;28;20451;-66
2022/09/12 11:28:56;;;;;;;4.85;2.08;;;;;;;;;;4974837;28;20034;-66
2022/09/12 11:31:34;;;;;;;4.95;1.80;;;;;;;;;;4975228;28;20106;-67
2022/09/12 11:34:07;;;;;;;4.47;1.90;;;;;;;;;;4975267;28;20097;-67
2022/09/12 11:37:01;;;;;;;3.08;1.60;;;;;;;;;;4975095;28;20062;-66
2022/09/12 11:39:37;;;;;;;5.55;1.80;;;;;;;;;;4975265;28;20035;-66
2022/09/12 11:42:05;;;;;;;2.15;1.67;;;;;;;;;;4975193;28;20251;-66
2022/09/12 11:44:48;;;;;;;1.83;1.40;;;;;;;;;;4974987;28;20449;-67
2022/09/12 11:47:14;;;;;;;6.47;1.83;;;;;;;;;;4957792;28;20501;-67
2022/09/12 11:49:49;;;;;;;3.88;1.70;;;;;;;;;;4957495;28;20089;-67
2022/09/12 11:52:19;;;;;;;4.72;1.85;;;;;;;;;;4974716;28;20039;-67
2022/09/12 11:55:23;;;;;;;3.00;1.73;;;;;;;;;;4974820;28;20041;-70
2022/09/12 11:57:55;;;;;;;3.80;1.90;;;;;;;;;;4971592;28;20042;-67
2022/09/12 12:00:45;;;;;;;3.35;1.77;;;;;;;;;;4974604;28;20027;-68
2022/09/12 12:03:21;;;;;;;7.13;1.67;;;;;;;;;;4973406;28;20096;-67
2022/09/12 12:06:25;;;;;;;3.60;1.95;;;;;;;;;;4974888;28;20110;-66
2022/09/12 12:08:52;;;;;;;3.55;2.30;;;;;;;;;;4974959;28;20039;-67
2022/09/12 12:11:27;;;;;;;5.43;2.10;;;;;;;;;;4974948;28;20112;-68
2022/09/12 12:14:03;;;;;;;7.40;2.10;;;;;;;;;;4946053;28;20569;-69
2022/09/12 12:16:36;;;;;;;3.25;2.08;;;;;;;;;;4974613;28;20031;-67
2022/09/12 12:19:05;;;;;;;;;;;;;;;;;;4974419;28;20070;-67
2022/09/12 12:21:39;;;;;;;4.55;2.25;;;;;;;;;;4974482;28;19969;-70
2022/09/12 12:24:07;;;;;;;2.75;1.80;;;;;;;;;;4974436;28;20073;-66
2022/09/12 12:26:39;;;;;;;3.03;1.83;;;;;;;;;;4973737;28;20054;-66
2022/09/12 12:29:15;;;;;;;4.57;1.80;;;;;;;;;;4974000;28;20043;-67
2022/09/12 12:32:02;;;;;;;7.63;2.25;;;;;;;;;;4974026;28;20030;-67
2022/09/12 12:34:31;;;;;;;2.50;1.80;;;;;;;;;;4973775;28;20038;-69
2022/09/12 12:37:18;;;;;;;3.72;1.85;;;;;;;;;;4973929;28;20038;-67
2022/09/12 12:39:47;;;;;;;5.00;1.85;;;;;;;;;;4973142;28;20111;-67
2022/09/12 12:42:34;;;;;;;3.53;1.80;;;;;;;;;;4973175;28;20102;-68
2022/09/12 12:45:28;;;;;;;3.50;1.90;;;;;;;;;;4973656;28;20537;-69
2022/09/12 12:48:21;;;;;;;4.03;1.83;;;;;;;;;;4972443;28;20054;-69
2022/09/12 12:50:47;;;;;;;4.47;2.05;;;;;;;;;;4971888;28;20046;-69
2022/09/12 12:53:23;;;;;;;3.35;1.52;;;;;;;;;;4956422;28;20038;-68
2022/09/12 12:55:52;;;;;;;2.72;1.83;;;;;;;;;;4974120;28;20093;-69
2022/09/12 12:58:35;;;;;;;2.75;1.80;;;;;;;;;;4973889;28;20054;-71
2022/09/12 13:01:19;;;;;;;4.88;1.92;;;;;;;;;;4973753;28;20031;-69
2022/09/12 13:04:09;;;;;;;4.30;1.73;;;;;;;;;;4973205;28;20043;-66
2022/09/12 13:06:37;;;;;;;6.30;1.77;;;;;;;;;;4973342;28;20039;-68
2022/09/12 13:09:36;;;;;;;3.22;1.73;;;;;;;;;;4975667;28;20027;-68
2022/09/12 13:12:17;;;;;;;2.92;1.50;;;;;;;;;;4974450;28;20055;-67
2022/09/12 13:14:46;;;;;;;4.30;1.88;;;;;;;;;;4974430;28;20046;-67
2022/09/12 13:17:39;;;;;;;2.88;1.70;;;;;;;;;;4974509;28;20045;-68
2022/09/12 13:20:11;;;;;;;3.45;2.00;;;;;;;;;;4975573;28;20043;-69
2022/09/12 13:22:40;;;;;;;3.03;1.98;;;;;;;;;;4976976;28;20082;-66
2022/09/12 13:25:23;;;;;;;2.40;1.63;;;;;;;;;;4959837;28;20031;-67
2022/09/12 13:28:09;;;;;;;;;;;;;;;;;;4959738;28;20038;-67
2022/09/12 13:30:41;;;;;;;3.58;2.10;;;;;;;;;;4968723;28;19944;-71
2022/09/12 13:33:30;;;;;;;4.18;1.90;;;;;;;;;;4976121;28;20046;-69
2022/09/12 13:36:33;;;;;;;10.15;1.65;;;;;;;;;;4962252;28;20050;-69
2022/09/12 13:39:20;;;;;;;5.15;2.08;;;;;;;;;;4954713;28;20039;-67
2022/09/12 13:42:25;;;;;;;3.17;1.80;;;;;;;;;;4957032;28;20043;-66
2022/09/12 13:45:03;;;;;;;4.97;1.75;;;;;;;;;;4948516;28;20044;-69
2022/09/12 13:47:35;;;;;;;3.20;2.00;;;;;;;;;;4936375;29;20161;-69
2022/09/12 13:50:04;;;;;;;4.57;2.10;;;;;;;;;;4937189;29;20447;-68
2022/09/12 13:52:36;;;;;;;4.90;1.60;;;;;;;;;;4938705;29;20629;-68
2022/09/12 13:55:24;;;;;;;5.50;2.10;;;;;;;;;;4938426;29;20115;-67
2022/09/12 13:58:03;;;;;;;2.20;1.55;;;;;;;;;;4938576;29;20040;-69
2022/09/12 14:00:31;;;;;;;2.60;1.52;;;;;;;;;;4938259;29;20145;-71
2022/09/12 14:05:54;;;;;;;4.82;1.70;;;;;;;;;;4937255;29;20031;-70
2022/09/12 14:08:22;;;;;;;6.60;1.60;;;;;;;;;;4937271;29;20042;-69
2022/09/12 14:10:49;;;;;;;4.53;1.73;;;;;;;;;;4938097;29;20110;-68
2022/09/12 14:13:34;;;;;;;3.22;1.60;;;;;;;;;;4938143;29;20036;-71
2022/09/12 14:16:01;;;;;;;4.10;1.80;;;;;;;;;;4937873;29;20050;-69
2022/09/12 14:18:35;;;;;;;4.80;1.40;;;;;;;;;;4936726;29;20039;-69
2022/09/12 14:21:19;;;;;;;3.88;1.60;;;;;;;;;;4938305;29;20408;-69
2022/09/12 14:23:47;;;;;;;6.00;1.95;;;;;;;;;;4936864;29;20047;-70
2022/09/12 14:26:16;;;;;;;3.88;1.50;;;;;;;;;;4921249;29;20035;-67
2022/09/12 14:28:47;;;;;;;3.50;1.60;;;;;;;;;;4938111;29;20131;-68
2022/09/12 14:31:27;;;;;;;2.22;1.60;;;;;;;;;;4936348;29;20042;-68
2022/09/12 14:33:56;;;;;;;8.52;1.92;;;;;;;;;;4937799;29;20496;-66
2022/09/12 14:36:55;;;;;;;5.88;1.80;;;;;;;;;;4951173;28;20023;-68
2022/09/12 14:39:23;;;;;;;2.85;1.60;;;;;;;;;;4926063;29;20428;-67
2022/09/12 14:41:51;;;;;;;3.53;1.75;;;;;;;;;;4937874;29;20024;-70
2022/09/12 14:44:24;;;;;;;2.78;1.52;;;;;;;;;;4920615;29;20039;-67
2022/09/12 14:46:50;;;;;;;3.75;1.50;;;;;;;;;;4937677;29;20044;-68
2022/09/12 14:49:35;;;;;;;3.13;1.38;;;;;;;;;;4920777;29;20046;-70
2022/09/12 14:52:05;;;;;;;4.57;1.67;;;;;;;;;;4937638;29;20041;-67
2022/09/12 14:54:31;;;;;;;2.38;1.30;;;;;;;;;;4937692;29;20118;-68
2022/09/12 14:57:00;;;;;;;5.38;1.50;;;;;;;;;;4937799;29;20399;-68
2022/09/12 14:59:32;;;;;;;6.78;1.45;;;;;;;;;;4937752;29;20059;-66
2022/09/12 15:02:15;;;;;;;3.22;1.48;;;;;;;;;;4920548;29;20075;-68
2022/09/12 15:04:46;;;;;;;3.67;1.20;;;;;;;;;;4937566;29;20046;-67
2022/09/12 15:07:34;;;;;;;2.63;1.55;;;;;;;;;;4946308;28;20449;-68
2022/09/12 15:10:24;;;;;;;3.53;1.38;;;;;;;;;;4973347;28;20034;-66
2022/09/12 15:13:05;;;;;;;5.20;1.05;;;;;;;;;;4974747;28;20058;-67
2022/09/12 15:15:31;;;;;;;2.58;1.38;;;;;;;;;;4974632;28;20051;-66
2022/09/12 15:17:57;;;;;;;2.17;1.30;;;;;;;;;;4974684;28;20160;-66
2022/09/12 15:20:23;;;;;;;3.00;1.30;;;;;;;;;;4974546;28;20057;-65
2022/09/12 15:22:50;;;;;;;3.10;1.33;;;;;;;;;;4957101;28;20031;-66
2022/09/12 15:25:16;;;;;;;2.83;1.40;;;;;;;;;;4973323;28;20035;-67
2022/09/12 15:27:44;;;;;;;4.90;1.40;;;;;;;;;;4974135;28;20046;-69